Avis, Pennsylvania
Current Conditions -  °F | °C
As of 11:33 PM on Wednesday 26 Nov 2014 (Local Time) from KIPT Reporting Station
Light Snow Light Snow  
Wind Chill: 25°   Ceiling: 6000
Heat Index: 32°   Visibility: 6mi
Dew Point: 29°   Wind: 8mph
Humidity: 88%   Direction: 260°W
Pressure: 29.97"   Gusts: NA
Location:  41.18°N, 77.31°W
Report Text: KIPT 270433Z AUTO 26007KT 6SM -SN BR SCT026 OVC060 00/M02 A2997 RMK AO2 SNB10 P0000 T00001017
Loading
Personal Weather Stations






























Interactive Weather Map New forecast layout! Learn more

10-Day Weather Forecast

Advertisements
Track Severe Weather on mobile